Time;durP1;ratioP1;P1;durP2;ratioP2;P2;SDS_P1;SDS_P2;PMS_P1;PMS_P2;Temp;Humidity;BMP_temperature;BMP_pressure;BME280_temperature;BME280_humidity;BME280_pressure;Samples;Min_cycle;Max_cycle;Signal;HPM_P1;HPM_P2
2022/08/16 00:01:48;;;;;;;4.07;3.75;;;22.80;69.30;;;;;;5042979;28;20201;-85
2022/08/16 00:04:14;;;;;;;5.18;4.78;;;22.70;69.20;;;;;;5039718;28;20188;-84
2022/08/16 00:06:41;;;;;;;4.82;4.50;;;22.70;68.80;;;;;;5043651;28;20189;-87
2022/08/16 00:09:07;;;;;;;5.10;4.60;;;22.80;69.20;;;;;;5040446;28;20238;-86
2022/08/16 00:11:33;;;;;;;4.93;4.53;;;22.70;69.80;;;;;;5037404;28;20284;-84
2022/08/16 00:14:00;;;;;;;4.78;4.38;;;22.70;70.30;;;;;;5039574;28;20441;-85
2022/08/16 00:16:28;;;;;;;4.82;4.43;;;22.60;69.90;;;;;;5045575;28;20243;-85
2022/08/16 00:18:53;;;;;;;5.10;4.50;;;22.60;70.20;;;;;;5028477;28;20213;-84
2022/08/16 00:21:19;;;;;;;4.72;4.30;;;22.70;70.00;;;;;;5046394;28;20243;-87
2022/08/16 00:23:45;;;;;;;5.35;4.95;;;22.60;69.90;;;;;;5032582;28;20198;-85
2022/08/16 00:26:11;;;;;;;6.45;4.85;;;22.80;69.70;;;;;;5039486;28;20281;-84
2022/08/16 00:28:36;;;;;;;4.63;4.32;;;22.80;69.60;;;;;;5045744;28;20225;-85
2022/08/16 00:31:03;;;;;;;4.45;4.15;;;22.80;69.80;;;;;;5042991;28;20181;-85
2022/08/16 00:33:28;;;;;;;4.80;4.40;;;22.80;69.60;;;;;;5040394;28;20204;-84
2022/08/16 00:35:54;;;;;;;5.13;4.72;;;22.70;70.40;;;;;;5048165;28;20196;-85
2022/08/16 00:38:20;;;;;;;5.07;4.78;;;22.70;70.80;;;;;;5049792;28;20200;-86
2022/08/16 00:40:49;;;;;;;4.88;4.47;;;22.60;71.30;;;;;;5045615;28;20217;-84
2022/08/16 00:43:16;;;;;;;4.38;4.07;;;22.60;70.60;;;;;;5044628;28;20216;-85
2022/08/16 00:46:21;;;;;;;5.53;4.78;;;22.60;70.80;;;;;;5047880;28;20191;-85
2022/08/16 00:48:49;;;;;;;5.20;4.80;;;22.60;71.20;;;;;;5040123;28;20261;-85
2022/08/16 00:51:19;;;;;;;5.53;5.03;;;22.40;72.20;;;;;;5042293;28;20209;-86
2022/08/16 00:53:46;;;;;;;5.10;4.70;;;22.40;72.00;;;;;;5045243;28;20200;-85
2022/08/16 00:56:17;;;;;;;5.22;4.82;;;22.40;72.10;;;;;;5044927;28;20223;-86
2022/08/16 00:58:45;;;;;;;5.25;4.75;;;22.50;71.30;;;;;;5040677;28;20177;-86
2022/08/16 01:01:12;;;;;;;5.10;4.60;;;22.50;71.80;;;;;;5042058;28;20201;-86
2022/08/16 01:03:41;;;;;;;5.25;4.75;;;22.30;72.90;;;;;;5041659;28;20264;-86
2022/08/16 01:06:08;;;;;;;4.95;4.55;;;22.10;74.20;;;;;;5048633;28;20188;-85
2022/08/16 01:08:35;;;;;;;5.03;4.68;;;22.20;72.40;;;;;;5029486;28;20181;-84
2022/08/16 01:11:05;;;;;;;5.10;4.70;;;22.20;72.10;;;;;;5027456;28;20284;-89
2022/08/16 01:13:34;;;;;;;5.40;4.90;;;22.30;71.30;;;;;;5040143;28;20215;-85
2022/08/16 01:16:19;;;;;;;5.57;4.93;;;22.30;71.30;;;;;;5034002;28;20189;-84
2022/08/16 01:18:53;;;;;;;4.78;4.38;;;22.30;71.00;;;;;;5047235;28;20189;-86
2022/08/16 01:21:45;;;;;;;4.97;4.65;;;22.30;71.30;;;;;;5041719;28;20203;-83
2022/08/16 01:24:23;;;;;;;4.80;4.50;;;22.30;70.70;;;;;;5046651;28;20204;-84
2022/08/16 01:26:53;;;;;;;5.07;4.70;;;22.40;70.70;;;;;;5040633;28;20186;-88
2022/08/16 01:29:26;;;;;;;4.78;4.40;;;22.30;71.00;;;;;;5045413;28;20233;-84
2022/08/16 01:31:52;;;;;;;4.78;4.47;;;22.30;70.50;;;;;;5056811;28;20176;-86
2022/08/16 01:34:18;;;;;;;5.05;4.65;;;22.30;70.40;;;;;;5056444;28;20185;-84
2022/08/16 01:36:44;;;;;;;5.13;4.72;;;22.20;70.60;;;;;;5045264;28;20736;-85
2022/08/16 01:39:14;;;;;;;5.03;4.63;;;22.10;71.40;;;;;;5045761;28;20217;-86
2022/08/16 01:41:41;;;;;;;4.47;4.18;;;22.20;71.00;;;;;;5045674;28;20466;-87
2022/08/16 01:44:08;;;;;;;5.55;5.05;;;22.10;71.10;;;;;;5045845;28;20181;-87
2022/08/16 01:46:40;;;;;;;5.38;4.88;;;22.20;70.90;;;;;;5047120;28;20192;-85
2022/08/16 01:49:11;;;;;;;4.75;4.45;;;22.20;70.70;;;;;;5052004;28;20209;-88
2022/08/16 01:51:38;;;;;;;4.88;4.47;;;22.20;70.30;;;;;;5034060;28;20265;-86
2022/08/16 01:54:04;;;;;;;5.30;4.90;;;22.20;71.10;;;;;;5045089;28;20207;-88
2022/08/16 01:56:30;;;;;;;6.43;5.93;;;22.20;71.40;;;;;;5046460;28;20640;-87
2022/08/16 01:58:59;;;;;;;5.53;5.13;;;22.00;73.90;;;;;;5029301;28;20231;-89
2022/08/16 02:01:25;;;;;;;6.03;5.50;;;21.80;74.70;;;;;;5010543;28;20296;-88
2022/08/16 02:03:51;;;;;;;6.00;5.50;;;21.70;74.20;;;;;;5039948;28;20245;-88
2022/08/16 02:06:18;;;;;;;5.30;4.90;;;21.70;74.40;;;;;;5035317;28;20181;-84
2022/08/16 02:08:44;;;;;;;5.18;4.80;;;21.70;74.60;;;;;;5042574;28;20226;-86
2022/08/16 02:11:10;;;;;;;5.60;5.20;;;21.70;75.10;;;;;;5041140;28;20189;-87
2022/08/16 02:13:39;;;;;;;5.57;5.18;;;21.70;74.20;;;;;;5038726;28;20203;-86
2022/08/16 02:16:06;;;;;;;5.15;4.75;;;21.80;74.70;;;;;;5037682;28;20238;-84
2022/08/16 02:18:31;;;;;;;5.60;5.10;;;21.70;75.50;;;;;;5041902;28;20215;-85
2022/08/16 02:20:57;;;;;;;5.43;4.93;;;21.60;75.90;;;;;;5045725;28;20205;-85
2022/08/16 02:23:23;;;;;;;5.00;4.70;;;21.50;77.20;;;;;;5042310;28;20200;-85
2022/08/16 02:25:49;;;;;;;6.53;5.40;;;21.40;76.70;;;;;;5044499;28;20259;-84
2022/08/16 02:28:16;;;;;;;5.97;5.38;;;21.50;75.60;;;;;;5028647;28;20228;-85
2022/08/16 02:30:42;;;;;;;5.40;4.90;;;21.50;76.50;;;;;;5024402;28;20759;-85
2022/08/16 02:33:08;;;;;;;5.57;5.18;;;21.40;77.70;;;;;;5033912;28;20181;-84
2022/08/16 02:35:34;;;;;;;5.63;4.97;;;21.20;79.20;;;;;;5045510;28;20173;-84
2022/08/16 02:38:00;;;;;;;4.95;4.65;;;21.10;80.40;;;;;;5043744;28;20216;-87
2022/08/16 02:40:27;;;;;;;5.80;5.30;;;21.00;80.50;;;;;;5045021;28;20212;-87
2022/08/16 02:42:53;;;;;;;5.28;4.78;;;21.10;79.50;;;;;;5045361;28;20169;-88
2022/08/16 02:45:23;;;;;;;5.70;5.20;;;21.30;78.20;;;;;;5044365;28;20200;-86
2022/08/16 02:47:49;;;;;;;5.97;5.45;;;21.40;78.00;;;;;;5043997;28;20196;-88
2022/08/16 02:50:15;;;;;;;5.55;5.13;;;21.50;77.80;;;;;;5044259;28;20236;-87
2022/08/16 02:52:42;;;;;;;5.93;5.43;;;21.50;77.10;;;;;;5045234;28;20253;-86
2022/08/16 02:55:09;;;;;;;5.13;4.82;;;21.60;76.70;;;;;;5042281;28;20293;-85
2022/08/16 02:57:35;;;;;;;5.97;5.47;;;21.70;75.70;;;;;;5024757;28;20185;-85
2022/08/16 03:00:07;;;;;;;5.40;5.00;;;21.70;76.00;;;;;;5037531;28;20256;-84
2022/08/16 03:02:34;;;;;;;5.32;4.93;;;21.70;76.00;;;;;;5046042;28;20204;-87
2022/08/16 03:05:00;;;;;;;5.70;5.20;;;21.70;75.60;;;;;;5044550;28;20204;-84
2022/08/16 03:07:25;;;;;;;5.10;4.80;;;21.70;76.90;;;;;;5042987;28;20232;-88
2022/08/16 03:09:51;;;;;;;5.50;4.93;;;21.50;76.80;;;;;;5026758;28;20213;-84
2022/08/16 03:12:18;;;;;;;5.72;5.22;;;21.50;77.10;;;;;;5038936;28;20930;-85
2022/08/16 03:14:44;;;;;;;5.55;5.10;;;21.50;76.70;;;;;;5047813;28;20189;-87
2022/08/16 03:17:10;;;;;;;4.97;4.63;;;21.40;76.20;;;;;;5035218;28;20200;-86
2022/08/16 03:19:36;;;;;;;5.80;5.25;;;21.50;76.20;;;;;;5042409;28;20283;-86
2022/08/16 03:22:01;;;;;;;5.35;4.95;;;21.40;77.10;;;;;;5040073;28;20228;-86
2022/08/16 03:24:27;;;;;;;5.70;5.20;;;21.30;78.20;;;;;;5045725;28;20193;-85
2022/08/16 03:26:54;;;;;;;6.22;5.63;;;21.20;78.60;;;;;;5042316;28;20688;-84
2022/08/16 03:29:20;;;;;;;5.10;4.70;;;21.10;78.70;;;;;;5042947;28;20231;-85
2022/08/16 03:31:46;;;;;;;5.45;5.05;;;21.00;78.60;;;;;;5042666;28;20277;-86
2022/08/16 03:34:12;;;;;;;5.43;4.95;;;21.10;78.40;;;;;;5041066;28;20196;-85
2022/08/16 03:36:37;;;;;;;6.38;5.88;;;21.10;78.50;;;;;;5042888;28;20193;-85
2022/08/16 03:39:03;;;;;;;5.68;5.18;;;21.20;77.80;;;;;;5038532;28;20261;-85
2022/08/16 03:41:29;;;;;;;5.85;4.93;;;21.20;77.80;;;;;;5039763;28;20208;-86
2022/08/16 03:43:54;;;;;;;5.30;5.00;;;21.30;77.60;;;;;;5033134;28;20439;-87
2022/08/16 03:46:21;;;;;;;5.68;5.18;;;21.20;77.80;;;;;;5022850;28;20197;-85
2022/08/16 03:48:48;;;;;;;5.80;5.30;;;21.20;77.30;;;;;;5043211;28;20188;-86
2022/08/16 03:51:13;;;;;;;6.35;5.45;;;21.20;77.80;;;;;;5044958;28;20196;-84
2022/08/16 03:53:41;;;;;;;6.00;5.38;;;21.20;77.60;;;;;;5046556;28;20204;-88
2022/08/16 03:56:08;;;;;;;5.75;5.30;;;21.10;77.60;;;;;;5041617;28;20193;-86
2022/08/16 03:58:34;;;;;;;5.93;5.43;;;21.20;76.80;;;;;;5037840;28;20191;-85
2022/08/16 04:01:00;;;;;;;5.43;5.00;;;21.30;76.10;;;;;;5046126;28;20328;-84
2022/08/16 04:03:27;;;;;;;6.57;5.03;;;21.40;75.60;;;;;;5037361;28;20219;-84
2022/08/16 04:05:53;;;;;;;5.63;5.20;;;21.30;75.60;;;;;;5043800;28;20752;-84
2022/08/16 04:08:20;;;;;;;6.32;5.85;;;21.20;76.20;;;;;;5046173;28;20211;-84
2022/08/16 04:10:47;;;;;;;17.10;6.18;;;21.30;76.00;;;;;;5045288;28;20204;-85
2022/08/16 04:13:14;;;;;;;12.57;6.15;;;21.30;75.50;;;;;;5049972;28;20540;-85
2022/08/16 04:15:40;;;;;;;10.10;6.13;;;21.30;75.30;;;;;;5047570;28;20201;-87
2022/08/16 04:18:06;;;;;;;7.22;5.32;;;21.30;75.90;;;;;;5044301;28;20197;-86
2022/08/16 04:20:32;;;;;;;5.47;5.00;;;21.30;75.80;;;;;;5039699;28;20646;-84
2022/08/16 04:22:58;;;;;;;7.05;5.60;;;21.40;75.50;;;;;;5047435;28;20512;-87
2022/08/16 04:25:24;;;;;;;6.18;5.35;;;21.30;76.00;;;;;;5040397;28;20186;-85
2022/08/16 04:27:50;;;;;;;5.50;5.10;;;21.30;76.30;;;;;;5040872;28;20188;-86
2022/08/16 04:30:18;;;;;;;6.15;5.63;;;21.30;76.20;;;;;;5035414;28;20680;-86
2022/08/16 04:32:44;;;;;;;6.03;5.53;;;21.30;76.20;;;;;;5043032;28;20180;-85
2022/08/16 04:35:15;;;;;;;5.95;5.45;;;21.30;75.90;;;;;;5044553;28;20188;-85
2022/08/16 04:37:42;;;;;;;6.63;6.03;;;21.40;75.90;;;;;;5045599;28;20188;-84
2022/08/16 04:40:09;;;;;;;5.95;5.47;;;21.50;75.80;;;;;;5035729;28;20209;-86
2022/08/16 04:42:38;;;;;;;6.22;5.65;;;21.30;76.80;;;;;;5036306;28;20240;-88
2022/08/16 04:45:05;;;;;;;5.70;5.28;;;21.20;78.00;;;;;;5034997;28;20186;-87
2022/08/16 04:47:32;;;;;;;6.35;5.70;;;21.10;77.80;;;;;;5038181;28;20189;-84
2022/08/16 04:49:58;;;;;;;8.20;5.72;;;21.20;79.20;;;;;;5038600;28;20228;-86
2022/08/16 04:52:24;;;;;;;7.07;6.22;;;21.20;77.80;;;;;;5041961;28;20187;-84
2022/08/16 04:54:50;;;;;;;6.47;5.78;;;21.20;77.40;;;;;;5041576;28;20257;-84
2022/08/16 04:57:17;;;;;;;6.47;5.97;;;21.20;78.40;;;;;;5039205;28;20285;-85
2022/08/16 04:59:43;;;;;;;6.18;5.70;;;21.10;78.80;;;;;;5039869;28;20209;-85
2022/08/16 05:02:08;;;;;;;5.95;5.40;;;21.20;78.60;;;;;;5037619;28;20228;-84
2022/08/16 05:04:36;;;;;;;5.95;5.45;;;21.20;78.80;;;;;;5038917;28;20188;-84
2022/08/16 05:07:02;;;;;;;5.53;4.95;;;21.20;77.90;;;;;;5036763;28;20181;-84
2022/08/16 05:09:27;;;;;;;6.20;5.60;;;21.30;77.90;;;;;;5044061;28;20201;-85
2022/08/16 05:11:53;;;;;;;5.95;5.28;;;21.40;77.40;;;;;;5038138;28;20276;-84
2022/08/16 05:14:19;;;;;;;7.97;5.80;;;21.50;77.40;;;;;;5039120;28;20248;-85
2022/08/16 05:16:45;;;;;;;6.28;5.68;;;21.60;76.30;;;;;;5041972;28;20216;-84
2022/08/16 05:19:10;;;;;;;7.25;6.68;;;21.60;76.10;;;;;;5035729;28;20225;-84
2022/08/16 05:21:37;;;;;;;6.63;6.05;;;21.50;77.10;;;;;;5037215;28;20209;-85
2022/08/16 05:24:04;;;;;;;6.55;6.03;;;21.30;77.50;;;;;;5042234;28;20185;-85
2022/08/16 05:26:31;;;;;;;7.43;6.20;;;21.30;77.80;;;;;;5039105;28;20216;-84
2022/08/16 05:28:58;;;;;;;6.97;6.05;;;21.30;77.70;;;;;;5045122;28;20212;-84
2022/08/16 05:31:27;;;;;;;6.35;5.70;;;21.40;78.40;;;;;;5037319;28;20197;-84
2022/08/16 05:33:53;;;;;;;5.70;5.30;;;21.50;78.60;;;;;;5040850;28;20183;-86
2022/08/16 05:36:19;;;;;;;6.18;5.53;;;21.60;77.10;;;;;;5035370;28;20194;-84
2022/08/16 05:38:46;;;;;;;6.15;5.55;;;21.70;76.40;;;;;;5042133;28;20181;-85
2022/08/16 05:41:11;;;;;;;6.43;5.93;;;21.80;76.80;;;;;;5040972;28;20265;-84
2022/08/16 05:43:38;;;;;;;7.50;6.10;;;21.80;76.50;;;;;;5044465;28;20185;-85
2022/08/16 05:46:04;;;;;;;7.15;6.45;;;21.80;76.40;;;;;;5036392;28;20192;-85
2022/08/16 05:48:30;;;;;;;7.30;6.60;;;21.70;76.80;;;;;;5037189;28;20180;-86
2022/08/16 05:50:56;;;;;;;5.93;5.47;;;21.80;75.90;;;;;;5017396;28;20212;-86
2022/08/16 05:53:22;;;;;;;6.82;6.32;;;21.80;76.50;;;;;;5033324;28;20201;-87
2022/08/16 05:55:49;;;;;;;6.75;6.10;;;21.70;77.10;;;;;;5037779;28;20248;-85
2022/08/16 05:58:14;;;;;;;6.72;6.20;;;21.80;76.00;;;;;;5041335;28;20189;-89
2022/08/16 06:00:40;;;;;;;6.22;5.63;;;21.70;75.30;;;;;;5044870;28;20224;-87
2022/08/16 06:03:06;;;;;;;6.60;6.10;;;21.80;75.10;;;;;;5040528;28;20181;-84
2022/08/16 06:05:31;;;;;;;7.57;6.55;;;21.70;76.80;;;;;;5032790;28;20657;-85
2022/08/16 06:07:57;;;;;;;8.95;6.30;;;21.70;77.30;;;;;;5035218;28;20764;-85
2022/08/16 06:10:23;;;;;;;6.53;6.03;;;21.70;77.10;;;;;;5039918;28;20205;-86
2022/08/16 06:12:49;;;;;;;6.45;5.95;;;21.70;79.00;;;;;;5045085;28;20711;-86
2022/08/16 06:15:17;;;;;;;6.57;5.97;;;21.60;79.20;;;;;;5044248;28;20220;-84
2022/08/16 06:17:44;;;;;;;6.90;6.30;;;21.60;79.40;;;;;;5040982;28;20209;-86
2022/08/16 06:20:14;;;;;;;7.65;6.95;;;21.60;80.50;;;;;;5031134;28;20573;-86
2022/08/16 06:22:41;;;;;;;7.20;6.60;;;21.70;79.60;;;;;;5029932;28;20282;-86
2022/08/16 06:25:08;;;;;;;7.43;6.72;;;21.90;77.50;;;;;;5043102;28;20664;-87
2022/08/16 06:27:33;;;;;;;10.93;7.20;;;22.20;76.10;;;;;;5043782;28;20192;-87
2022/08/16 06:29:59;;;;;;;8.13;7.32;;;22.40;75.60;;;;;;5042122;28;20201;-84
2022/08/16 06:32:25;;;;;;;9.13;8.32;;;22.50;75.60;;;;;;5036134;28;20249;-85
2022/08/16 06:34:50;;;;;;;8.90;8.20;;;22.20;78.00;;;;;;5035670;28;20189;-86
2022/08/16 06:37:16;;;;;;;8.40;7.63;;;22.10;78.40;;;;;;5040695;28;20185;-83
2022/08/16 06:39:42;;;;;;;11.57;8.02;;;22.30;77.70;;;;;;5027720;28;20205;-89
2022/08/16 06:42:07;;;;;;;8.88;8.07;;;22.40;77.10;;;;;;5049148;28;20215;-90
2022/08/16 06:44:33;;;;;;;9.10;8.38;;;22.40;76.80;;;;;;5041473;28;20248;-85
2022/08/16 06:46:59;;;;;;;7.25;6.75;;;22.60;76.50;;;;;;5039954;28;20195;-85
2022/08/16 06:49:25;;;;;;;8.07;7.47;;;22.60;75.70;;;;;;5040072;28;20204;-87
2022/08/16 06:51:51;;;;;;;8.27;7.68;;;22.60;75.60;;;;;;5025135;28;20201;-86
2022/08/16 06:54:17;;;;;;;8.05;7.55;;;22.80;75.10;;;;;;5043618;28;20196;-83
2022/08/16 06:56:44;;;;;;;7.95;7.30;;;22.60;74.70;;;;;;5044532;28;20620;-84
2022/08/16 06:59:09;;;;;;;8.52;7.72;;;22.40;75.20;;;;;;5040793;28;20209;-83
2022/08/16 07:01:35;;;;;;;8.48;7.88;;;22.40;76.00;;;;;;5044519;28;20212;-86
2022/08/16 07:04:01;;;;;;;8.23;7.53;;;22.60;75.90;;;;;;5043592;28;20211;-85
2022/08/16 07:06:30;;;;;;;7.80;7.15;;;22.60;76.40;;;;;;5044309;28;20587;-85
2022/08/16 07:08:55;;;;;;;8.43;7.68;;;22.60;75.70;;;;;;5040859;28;20200;-85
2022/08/16 07:11:21;;;;;;;8.98;7.78;;;22.60;75.80;;;;;;5045481;28;20291;-87
2022/08/16 07:13:51;;;;;;;9.13;7.40;;;22.60;75.30;;;;;;5044738;28;20728;-85
2022/08/16 07:16:17;;;;;;;8.77;7.90;;;22.50;77.20;;;;;;5044348;28;20191;-84
2022/08/16 07:18:44;;;;;;;8.60;7.90;;;22.40;77.10;;;;;;5041678;28;20580;-85
2022/08/16 07:21:11;;;;;;;8.98;8.18;;;22.30;77.90;;;;;;5043763;28;20219;-84
2022/08/16 07:23:38;;;;;;;11.43;8.32;;;22.30;78.00;;;;;;5042520;28;20192;-84
2022/08/16 07:26:07;;;;;;;8.48;7.75;;;22.30;77.40;;;;;;5038468;28;20204;-86
2022/08/16 07:28:34;;;;;;;8.80;8.00;;;22.50;76.90;;;;;;5040602;28;20206;-85
2022/08/16 07:31:01;;;;;;;10.30;8.20;;;22.60;76.80;;;;;;5040356;28;20192;-85
2022/08/16 07:33:29;;;;;;;8.10;7.43;;;22.60;75.90;;;;;;5036555;28;20284;-85
2022/08/16 07:35:56;;;;;;;8.80;8.00;;;22.80;75.70;;;;;;5040067;28;20181;-85
2022/08/16 07:38:26;;;;;;;8.57;7.70;;;22.80;75.50;;;;;;5038589;28;20236;-86
2022/08/16 07:40:53;;;;;;;8.10;7.32;;;22.70;75.60;;;;;;5044811;28;20282;-87
2022/08/16 07:43:18;;;;;;;7.53;6.93;;;23.00;73.80;;;;;;5044595;28;20212;-84
2022/08/16 07:45:44;;;;;;;7.95;7.35;;;23.20;73.80;;;;;;5046761;28;20204;-86
2022/08/16 07:48:10;;;;;;;8.40;7.60;;;23.00;73.10;;;;;;5049209;28;20193;-83
2022/08/16 07:50:36;;;;;;;7.68;7.07;;;23.00;73.30;;;;;;5038755;28;20225;-82
2022/08/16 07:53:02;;;;;;;8.48;7.68;;;23.20;73.00;;;;;;5046250;28;20198;-85
2022/08/16 07:55:27;;;;;;;8.57;7.55;;;23.20;72.30;;;;;;5045727;28;20244;-84
2022/08/16 07:57:53;;;;;;;8.10;7.47;;;23.40;71.50;;;;;;5045121;28;20205;-84
2022/08/16 08:00:19;;;;;;;8.40;7.72;;;23.50;71.10;;;;;;5047509;28;20213;-83
2022/08/16 08:02:46;;;;;;;7.88;7.35;;;23.70;70.30;;;;;;5058206;28;20247;-82
2022/08/16 08:05:12;;;;;;;8.90;7.45;;;23.90;69.60;;;;;;5060205;28;20177;-82
2022/08/16 08:07:38;;;;;;;7.55;6.85;;;23.90;69.30;;;;;;5056790;28;20225;-82
2022/08/16 08:10:04;;;;;;;7.78;6.97;;;23.90;69.70;;;;;;5046366;28;20213;-84
2022/08/16 08:12:30;;;;;;;8.35;7.55;;;24.10;68.60;;;;;;5041512;28;20264;-84
2022/08/16 08:14:56;;;;;;;8.30;7.63;;;24.20;68.40;;;;;;5045040;28;20181;-85
2022/08/16 08:17:22;;;;;;;7.93;7.25;;;24.10;68.20;;;;;;5045687;28;20208;-84
2022/08/16 08:19:48;;;;;;;7.78;7.18;;;24.20;67.80;;;;;;5043018;28;20203;-85
2022/08/16 08:22:14;;;;;;;8.02;7.30;;;24.50;66.80;;;;;;5042036;28;20632;-85
2022/08/16 08:24:39;;;;;;;8.57;7.80;;;24.60;66.50;;;;;;5044877;28;20203;-82
2022/08/16 08:27:07;;;;;;;7.63;7.10;;;24.60;66.20;;;;;;5037870;28;20193;-84
2022/08/16 08:29:35;;;;;;;7.70;7.10;;;24.70;65.20;;;;;;5042975;28;20196;-84
2022/08/16 08:32:01;;;;;;;8.35;7.35;;;24.80;66.10;;;;;;5041445;28;20181;-83
2022/08/16 08:34:27;;;;;;;9.35;7.93;;;25.10;63.90;;;;;;5042286;28;20192;-84
2022/08/16 08:36:53;;;;;;;8.23;7.60;;;24.90;64.40;;;;;;5043413;28;20189;-84
2022/08/16 08:39:19;;;;;;;8.05;7.35;;;24.60;65.30;;;;;;5044155;28;20228;-83
2022/08/16 08:41:45;;;;;;;8.07;7.28;;;24.70;65.00;;;;;;5040477;28;20212;-84
2022/08/16 08:44:11;;;;;;;7.18;6.63;;;24.80;64.20;;;;;;5040764;28;20241;-84
2022/08/16 08:46:38;;;;;;;7.88;7.10;;;25.00;64.50;;;;;;5036798;28;20693;-84
2022/08/16 08:49:06;;;;;;;6.93;6.32;;;25.10;64.40;;;;;;5044423;28;20196;-85
2022/08/16 08:51:32;;;;;;;7.32;6.72;;;25.40;63.60;;;;;;5041957;28;20270;-83
2022/08/16 08:53:58;;;;;;;7.50;7.00;;;25.50;62.60;;;;;;5036625;28;20279;-84
2022/08/16 08:56:24;;;;;;;8.07;7.38;;;25.50;62.50;;;;;;5021412;28;20193;-84
2022/08/16 08:58:50;;;;;;;7.95;7.32;;;25.40;62.00;;;;;;5044648;28;20185;-84
2022/08/16 09:01:20;;;;;;;8.15;7.32;;;25.40;62.70;;;;;;5043957;28;20212;-85
2022/08/16 09:03:46;;;;;;;8.13;7.47;;;25.40;62.20;;;;;;5042433;28;20252;-84
2022/08/16 09:06:11;;;;;;;7.38;6.78;;;25.30;62.00;;;;;;5038479;28;20188;-83
2022/08/16 09:08:38;;;;;;;7.68;6.88;;;25.50;62.50;;;;;;5037542;28;20189;-84
2022/08/16 09:11:04;;;;;;;10.98;8.15;;;25.70;61.50;;;;;;5036591;28;20182;-84
2022/08/16 09:13:31;;;;;;;7.80;7.07;;;25.90;60.10;;;;;;5038771;28;20177;-84
2022/08/16 09:15:57;;;;;;;8.70;8.00;;;26.10;57.50;;;;;;5037004;28;20177;-87
2022/08/16 09:18:23;;;;;;;7.75;7.03;;;26.40;55.40;;;;;;5038012;28;20212;-85
2022/08/16 09:20:54;;;;;;;8.23;7.63;;;26.80;55.00;;;;;;5035868;28;20208;-85
2022/08/16 09:23:21;;;;;;;8.23;7.55;;;27.00;54.40;;;;;;5042761;28;20615;-84
2022/08/16 09:25:47;;;;;;;8.73;7.85;;;27.10;53.40;;;;;;5037885;28;20173;-85
2022/08/16 09:28:14;;;;;;;8.40;7.68;;;27.00;53.80;;;;;;5035037;28;20193;-84
2022/08/16 09:30:41;;;;;;;9.15;8.35;;;26.90;53.70;;;;;;5038923;28;20200;-82
2022/08/16 09:33:07;;;;;;;8.18;7.40;;;27.10;53.10;;;;;;5039404;28;20629;-83
2022/08/16 09:35:34;;;;;;;14.02;7.82;;;27.30;53.30;;;;;;5043161;28;20185;-83
2022/08/16 09:38:00;;;;;;;8.38;7.68;;;27.00;53.60;;;;;;5033907;28;20178;-83
2022/08/16 09:40:25;;;;;;;8.30;7.53;;;26.60;54.20;;;;;;5036317;28;20316;-85
2022/08/16 09:42:57;;;;;;;8.43;7.70;;;26.40;54.50;;;;;;5046662;28;20615;-85
2022/08/16 09:45:24;;;;;;;8.43;7.78;;;26.30;55.60;;;;;;5032585;28;20184;-83
2022/08/16 09:47:53;;;;;;;10.18;7.80;;;26.70;54.80;;;;;;5034955;28;20178;-85
2022/08/16 09:50:20;;;;;;;8.30;7.65;;;26.90;54.50;;;;;;5047605;28;20212;-83
2022/08/16 09:52:46;;;;;;;8.48;7.82;;;27.00;53.20;;;;;;5042316;28;20242;-82
2022/08/16 09:55:12;;;;;;;8.98;8.23;;;27.30;52.20;;;;;;5033788;28;20205;-85
2022/08/16 09:57:40;;;;;;;7.97;7.32;;;27.40;51.90;;;;;;5038069;28;20212;-84
2022/08/16 10:00:09;;;;;;;8.73;7.93;;;27.40;50.50;;;;;;5043545;28;20213;-84
2022/08/16 10:02:35;;;;;;;7.63;7.00;;;27.40;51.70;;;;;;5034001;28;20209;-84
2022/08/16 10:05:01;;;;;;;8.35;7.65;;;27.10;52.50;;;;;;5038798;28;20260;-84
2022/08/16 10:07:28;;;;;;;8.40;7.80;;;27.40;51.40;;;;;;5037984;28;20170;-83
2022/08/16 10:09:54;;;;;;;8.20;7.40;;;27.70;50.30;;;;;;5035520;28;20213;-84
2022/08/16 10:15:07;;;;;;;7.93;7.30;;;28.40;49.20;;;;;;5040191;28;20200;-85
2022/08/16 10:17:33;;;;;;;8.13;7.53;;;28.30;48.80;;;;;;5043977;28;20189;-84
2022/08/16 10:19:59;;;;;;;8.70;7.57;;;28.20;48.10;;;;;;5045489;28;20200;-85
2022/08/16 10:22:25;;;;;;;8.07;7.47;;;28.40;47.90;;;;;;5039045;28;20812;-84
2022/08/16 10:24:51;;;;;;;7.90;7.30;;;28.40;47.10;;;;;;5035020;28;20205;-84
2022/08/16 10:27:19;;;;;;;7.55;7.03;;;28.50;47.10;;;;;;5040302;28;20204;-84
2022/08/16 10:29:45;;;;;;;8.20;7.60;;;28.70;46.10;;;;;;5038024;28;20208;-83
2022/08/16 10:32:11;;;;;;;7.78;7.28;;;28.80;44.50;;;;;;5031698;28;20268;-85
2022/08/16 10:34:36;;;;;;;7.97;7.13;;;28.90;44.60;;;;;;5040349;28;20290;-85
2022/08/16 10:37:02;;;;;;;8.90;6.70;;;29.10;44.80;;;;;;5036279;28;20209;-83
2022/08/16 10:39:29;;;;;;;7.20;6.70;;;29.00;44.10;;;;;;5045131;28;20272;-85
2022/08/16 10:41:55;;;;;;;7.72;7.10;;;29.10;44.60;;;;;;5036844;28;20215;-84
2022/08/16 10:44:21;;;;;;;7.60;6.88;;;29.50;43.70;;;;;;5032270;28;20165;-83
2022/08/16 10:46:48;;;;;;;6.25;5.88;;;29.80;42.50;;;;;;5042761;28;20192;-83
2022/08/16 10:49:13;;;;;;;7.35;6.85;;;29.80;42.20;;;;;;5041035;28;20228;-85
2022/08/16 10:51:39;;;;;;;7.20;6.72;;;29.70;41.20;;;;;;5037677;28;20197;-84
2022/08/16 10:54:05;;;;;;;7.32;6.82;;;29.80;41.80;;;;;;5049019;28;20184;-83
2022/08/16 10:56:32;;;;;;;7.38;6.93;;;29.90;41.90;;;;;;5037681;28;20192;-85
2022/08/16 10:58:58;;;;;;;7.80;7.18;;;29.90;42.00;;;;;;5037546;28;20276;-84
2022/08/16 11:01:25;;;;;;;7.53;7.00;;;29.70;42.20;;;;;;5036791;28;20300;-85
2022/08/16 11:03:52;;;;;;;7.95;7.18;;;29.70;41.00;;;;;;5037888;28;20188;-85
2022/08/16 11:06:18;;;;;;;7.60;7.10;;;30.00;41.40;;;;;;5041091;28;20189;-85
2022/08/16 11:08:44;;;;;;;7.35;6.72;;;30.30;40.60;;;;;;5037358;28;20191;-86
2022/08/16 11:11:12;;;;;;;7.65;7.10;;;30.40;39.90;;;;;;5037263;28;20192;-87
2022/08/16 11:13:38;;;;;;;7.15;6.65;;;30.80;38.10;;;;;;5043958;28;20744;-87
2022/08/16 11:16:05;;;;;;;7.93;7.32;;;31.00;38.80;;;;;;5038315;28;20185;-86
2022/08/16 11:18:31;;;;;;;8.02;7.40;;;30.90;38.10;;;;;;5041358;28;20190;-85
2022/08/16 11:20:58;;;;;;;7.22;6.72;;;30.40;38.80;;;;;;5042977;28;20440;-85
2022/08/16 11:23:25;;;;;;;7.80;7.03;;;30.20;39.70;;;;;;5042157;28;20180;-86
2022/08/16 11:25:52;;;;;;;8.75;8.02;;;30.40;39.30;;;;;;5038511;28;20185;-86
2022/08/16 11:28:18;;;;;;;7.95;7.45;;;30.60;39.60;;;;;;5032035;28;20185;-87
2022/08/16 11:30:45;;;;;;;7.85;7.15;;;30.70;39.10;;;;;;5035647;28;20207;-86
2022/08/16 11:33:11;;;;;;;7.65;6.97;;;31.00;39.10;;;;;;5042361;28;20223;-88
2022/08/16 11:35:38;;;;;;;7.32;6.82;;;31.00;39.20;;;;;;5039274;28;20542;-86
2022/08/16 11:38:09;;;;;;;8.18;7.53;;;31.30;38.20;;;;;;5034752;28;20169;-87
2022/08/16 11:40:49;;;;;;;7.80;7.30;;;31.40;37.10;;;;;;5037573;28;20211;-85
2022/08/16 11:43:20;;;;;;;8.15;7.50;;;30.80;37.90;;;;;;5038760;28;20193;-85
2022/08/16 11:45:47;;;;;;;8.48;7.57;;;30.90;38.30;;;;;;5029005;28;20177;-88
2022/08/16 11:48:14;;;;;;;7.72;7.15;;;31.50;37.60;;;;;;5038404;28;20533;-85
2022/08/16 11:50:42;;;;;;;7.63;7.03;;;31.70;37.60;;;;;;5051364;28;20220;-86
2022/08/16 11:53:08;;;;;;;7.88;7.28;;;31.50;37.10;;;;;;5038925;28;20189;-88
2022/08/16 11:55:36;;;;;;;7.65;7.07;;;31.50;37.10;;;;;;5039454;28;20185;-87
2022/08/16 11:58:02;;;;;;;7.03;6.63;;;31.50;36.50;;;;;;5038285;28;20273;-85
2022/08/16 12:00:30;;;;;;;7.28;6.78;;;31.60;36.20;;;;;;5027480;28;20240;-85
2022/08/16 12:02:55;;;;;;;7.15;6.60;;;31.90;34.40;;;;;;5037463;28;20201;-85
2022/08/16 12:05:23;;;;;;;7.45;6.85;;;32.40;34.10;;;;;;5041223;28;20212;-88
2022/08/16 12:07:49;;;;;;;7.45;6.80;;;32.80;33.20;;;;;;5033103;28;20188;-86
2022/08/16 12:10:18;;;;;;;7.35;6.88;;;33.20;33.40;;;;;;5042878;28;20205;-90
2022/08/16 12:12:45;;;;;;;7.53;7.00;;;33.20;33.60;;;;;;5048508;28;20189;-89
2022/08/16 12:15:12;;;;;;;8.25;7.63;;;33.00;33.60;;;;;;5048928;28;20188;-91
2022/08/16 12:17:39;;;;;;;7.93;7.30;;;33.10;33.60;;;;;;5046590;28;20212;-85
2022/08/16 12:20:15;;;;;;;7.40;6.90;;;32.90;33.30;;;;;;5044343;28;20681;-86
2022/08/16 12:22:42;;;;;;;8.15;7.45;;;33.30;33.40;;;;;;5046587;28;20294;-86
2022/08/16 12:25:11;;;;;;;7.65;6.97;;;33.50;32.90;;;;;;5047403;28;20185;-85
2022/08/16 12:27:37;;;;;;;7.45;6.93;;;33.20;33.30;;;;;;5044660;28;20181;-86
2022/08/16 12:30:04;;;;;;;7.38;6.90;;;32.70;33.40;;;;;;5040038;28;20201;-85
2022/08/16 12:32:30;;;;;;;7.53;7.03;;;33.00;33.40;;;;;;5042357;28;20197;-86
2022/08/16 12:34:56;;;;;;;9.18;7.50;;;33.60;32.30;;;;;;5038381;28;20212;-85
2022/08/16 12:37:23;;;;;;;7.50;6.82;;;34.00;32.00;;;;;;5047399;28;20654;-85
2022/08/16 12:39:49;;;;;;;7.63;7.07;;;34.30;30.80;;;;;;5031479;28;20227;-86
2022/08/16 12:42:18;;;;;;;7.45;6.97;;;34.10;31.60;;;;;;5039012;28;20209;-85
2022/08/16 12:44:44;;;;;;;7.75;7.15;;;34.30;31.40;;;;;;5038895;28;20178;-88
2022/08/16 12:49:54;;;;;;;6.82;6.43;;;34.60;30.00;;;;;;5042721;28;20251;-87